Time;durP1;ratioP1;P1;durP2;ratioP2;P2;SDS_P1;SDS_P2;PMS_P1;PMS_P2;Temp;Humidity;BMP_temperature;BMP_pressure;BME280_temperature;BME280_humidity;BME280_pressure;Samples;Min_cycle;Max_cycle;Signal;HPM_P1;HPM_P2
2023/05/25 00:00:15;;;;;;;;;;;;;;;26.36;44.91;94284.59;5044819;28;7257;-60
2023/05/25 00:02:47;;;;;;;;;;;;;;;26.35;44.40;94285.88;5053216;28;7250;-61
2023/05/25 00:05:28;;;;;;;;;;;;;;;26.35;44.21;94283.13;5053531;28;7286;-61
2023/05/25 00:08:04;;;;;;;;;;;;;;;26.35;45.00;94279.63;5017285;28;6993;-61
2023/05/25 00:10:32;;;;;;;;;;;;;;;26.34;44.98;94278.84;5037130;28;9337;-61
2023/05/25 00:13:04;;;;;;;;;;;;;;;26.32;45.06;94267.59;5063059;28;7028;-60
2023/05/25 00:15:35;;;;;;;;;;;;;;;26.33;44.67;94265.59;5033602;28;9446;-60
2023/05/25 00:18:01;;;;;;;;;;;;;;;26.31;44.87;94262.63;5064466;28;7600;-61
2023/05/25 00:20:32;;;;;;;;;;;;;;;26.34;44.48;94270.59;5024168;28;7276;-61
2023/05/25 00:22:58;;;;;;;;;;;;;;;26.35;44.43;94265.81;5028130;28;7131;-61
2023/05/25 00:25:24;;;;;;;;;;;;;;;26.30;44.97;94263.88;5037616;28;9746;-60
2023/05/25 00:27:52;;;;;;;;;;;;;;;26.32;44.18;94264.84;5047960;28;7260;-60
2023/05/25 00:30:18;;;;;;;;;;;;;;;26.32;44.21;94264.13;5058353;28;7291;-60
2023/05/25 00:32:46;;;;;;;;;;;;;;;26.34;44.65;94269.88;5027946;28;7092;-61
2023/05/25 00:35:12;;;;;;;;;;;;;;;26.33;44.41;94271.88;5037926;28;7563;-60
2023/05/25 00:37:40;;;;;;;;;;;;;;;26.33;44.85;94269.09;5051861;28;9130;-61
2023/05/25 00:40:19;;;;;;;;;;;;;;;26.30;44.47;94264.63;5051242;28;7025;-61
2023/05/25 00:42:46;;;;;;;;;;;;;;;26.32;44.22;94258.59;5049626;28;9123;-60
2023/05/25 00:45:16;;;;;;;;;;;;;;;26.31;44.78;94259.84;5033037;28;7071;-61
2023/05/25 00:47:43;;;;;;;;;;;;;;;26.30;44.39;94258.34;5045125;28;9203;-61
2023/05/25 00:50:16;;;;;;;;;;;;;;;26.28;44.62;94256.13;5051501;28;7115;-60
2023/05/25 00:52:42;;;;;;;;;;;;;;;26.31;44.43;94266.13;5050292;28;7319;-61
2023/05/25 00:55:17;;;;;;;;;;;;;;;26.30;44.17;94258.34;5064486;28;8970;-60
2023/05/25 00:57:53;;;;;;;;;;;;;;;26.29;44.71;94256.88;5036829;28;7109;-60
2023/05/25 01:00:22;;;;;;;;;;;;;;;26.28;44.92;94249.84;5046430;28;7271;-60
2023/05/25 01:02:58;;;;;;;;;;;;;;;26.29;44.39;94259.63;5044067;28;7202;-60
2023/05/25 01:05:33;;;;;;;;;;;;;;;26.23;44.94;94251.41;5062093;28;7030;-60
2023/05/25 01:08:08;;;;;;;;;;;;;;;26.27;44.14;94259.41;5060073;28;9131;-60
2023/05/25 01:10:40;;;;;;;;;;;;;;;26.26;44.99;94260.66;5056273;28;7234;-60
2023/05/25 01:13:08;;;;;;;;;;;;;;;26.28;44.48;94258.13;5058769;28;8493;-60
2023/05/25 01:15:39;;;;;;;;;;;;;;;26.27;44.74;94264.91;5043194;28;9084;-60
2023/05/25 01:18:05;;;;;;;;;;;;;;;26.22;44.26;94255.44;5049399;28;7091;-60
2023/05/25 01:20:34;;;;;;;;;;;;;;;26.28;44.48;94263.63;5050390;28;7031;-61
2023/05/25 01:23:16;;;;;;;;;;;;;;;26.25;44.60;94257.19;5055960;28;7257;-60
2023/05/25 01:25:52;;;;;;;;;;;;;;;26.24;45.00;94254.91;5050832;28;8188;-60
2023/05/25 01:28:27;;;;;;;;;;;;;;;26.27;44.61;94259.41;5042283;28;9043;-60
2023/05/25 01:31:01;;;;;;;;;;;;;;;26.26;44.82;94255.16;5045246;28;7017;-61
2023/05/25 01:33:32;;;;;;;;;;;;;;;26.25;44.88;94248.91;5049499;28;9469;-60
2023/05/25 01:36:04;;;;;;;;;;;;;;;26.27;45.07;94256.66;5049915;28;7240;-60
2023/05/25 01:38:32;;;;;;;;;;;;;;;26.22;44.69;94238.16;5050629;28;7196;-61
2023/05/25 01:41:07;;;;;;;;;;;;;;;26.26;44.08;94249.63;5036044;28;7029;-60
2023/05/25 01:43:43;;;;;;;;;;;;;;;26.26;44.75;94246.88;5051285;28;8241;-60
2023/05/25 01:46:39;;;;;;;;;;;;;;;26.25;44.85;94245.41;5040377;28;9028;-61
2023/05/25 01:49:42;;;;;;;;;;;;;;;26.25;44.75;94246.16;5050054;28;9438;-61
2023/05/25 01:52:25;;;;;;;;;;;;;;;26.25;44.58;94245.41;5070409;28;7044;-61
2023/05/25 01:55:18;;;;;;;;;;;;;;;26.24;44.08;94241.88;5054704;28;9333;-60
2023/05/25 01:57:56;;;;;;;;;;;;;;;26.23;44.34;94245.91;5041365;28;7079;-61
2023/05/25 02:00:33;;;;;;;;;;;;;;;26.22;44.88;94255.44;5055555;28;7661;-60
2023/05/25 02:03:08;;;;;;;;;;;;;;;26.23;44.16;94253.44;5071538;28;7528;-60
2023/05/25 02:05:35;;;;;;;;;;;;;;;26.22;44.30;94255.44;5055230;28;9022;-60
2023/05/25 02:08:01;;;;;;;;;;;;;;;26.21;44.70;94250.47;5057026;28;7127;-61
2023/05/25 02:10:34;;;;;;;;;;;;;;;26.22;44.51;94243.66;5053649;28;8959;-61
2023/05/25 02:13:05;;;;;;;;;;;;;;;26.19;44.23;94228.91;5052191;28;9079;-60
2023/05/25 02:15:33;;;;;;;;;;;;;;;26.22;44.19;94232.63;5039116;28;9403;-61
2023/05/25 02:18:04;;;;;;;;;;;;;;;26.19;44.78;94233.69;5054997;28;7406;-61
2023/05/25 02:20:42;;;;;;;;;;;;;;;26.16;44.61;94232.72;5053655;28;7235;-60
2023/05/25 02:23:19;;;;;;;;;;;;;;;26.14;44.49;94224.94;5072134;28;7022;-61
2023/05/25 02:25:45;;;;;;;;;;;;;;;26.18;45.19;94230.19;5055793;28;7326;-61
2023/05/25 02:28:16;;;;;;;;;;;;;;;26.19;44.31;94233.69;5037296;28;7390;-60
2023/05/25 02:30:43;;;;;;;;;;;;;;;26.15;44.72;94231.22;5051229;28;7153;-60
2023/05/25 02:33:13;;;;;;;;;;;;;;;26.19;44.99;94230.94;5071178;28;7076;-61
2023/05/25 02:35:55;;;;;;;;;;;;;;;26.18;44.44;94230.19;5059199;28;9113;-60
2023/05/25 02:38:23;;;;;;;;;;;;;;;26.15;44.80;94229.19;5054729;28;7048;-60
2023/05/25 02:40:51;;;;;;;;;;;;;;;26.16;44.12;94222.41;5050085;28;7072;-61
2023/05/25 02:43:20;;;;;;;;;;;;;;;26.15;44.31;94223.69;5053966;28;7554;-60
2023/05/25 02:45:47;;;;;;;;;;;;;;;26.16;44.37;94227.94;5049048;28;7042;-61
2023/05/25 02:48:13;;;;;;;;;;;;;;;26.15;44.58;94218.19;5034519;28;9851;-60
2023/05/25 02:50:46;;;;;;;;;;;;;;;26.14;44.66;94216.66;5045190;28;7028;-61
2023/05/25 02:53:24;;;;;;;;;;;;;;;26.13;44.96;94217.94;5056014;28;9332;-61
2023/05/25 02:56:00;;;;;;;;;;;;;;;26.12;44.42;94218.47;5053903;28;7339;-61
2023/05/25 02:58:29;;;;;;;;;;;;;;;26.14;44.33;94224.22;5038146;28;7034;-60
2023/05/25 03:00:58;;;;;;;;;;;;;;;26.13;44.56;94220.72;5053820;28;7038;-60
2023/05/25 03:03:34;;;;;;;;;;;;;;;26.12;44.11;94224.72;5069329;28;7632;-60
2023/05/25 03:06:11;;;;;;;;;;;;;;;26.15;44.47;94222.94;5043057;28;9152;-60
2023/05/25 03:08:42;;;;;;;;;;;;;;;26.12;45.28;94230.22;5039415;28;7027;-60
2023/05/25 03:11:09;;;;;;;;;;;;;;;26.14;44.47;94229.72;5052595;28;7295;-61
2023/05/25 03:13:47;;;;;;;;;;;;;;;26.13;44.56;94228.97;5047003;28;7278;-60
2023/05/25 03:16:16;;;;;;;;;;;;;;;26.09;44.67;94231.28;5043123;28;7469;-60
2023/05/25 03:18:45;;;;;;;;;;;;;;;26.11;44.63;94237.03;5036197;28;7109;-61
2023/05/25 03:21:17;;;;;;;;;;;;;;;26.13;44.10;94236.50;5053517;28;9406;-60
2023/05/25 03:23:52;;;;;;;;;;;;;;;26.14;44.90;94235.97;5067371;28;7258;-60
2023/05/25 03:26:24;;;;;;;;;;;;;;;26.13;44.21;94236.50;5040887;28;8978;-60
2023/05/25 03:28:56;;;;;;;;;;;;;;;26.09;44.21;94236.78;5035781;28;9023;-60
2023/05/25 03:31:55;;;;;;;;;;;;;;;26.11;44.72;94234.25;5043482;28;7043;-60
2023/05/25 03:34:25;;;;;;;;;;;;;;;26.12;44.88;94235.75;5034604;28;7540;-61
2023/05/25 03:36:55;;;;;;;;;;;;;;;26.10;44.50;94232.75;5049350;28;9019;-60
2023/05/25 03:39:24;;;;;;;;;;;;;;;26.10;44.98;94232.75;5068985;28;7346;-61
2023/05/25 03:41:58;;;;;;;;;;;;;;;26.10;44.35;94241.03;5071497;28;7230;-61
2023/05/25 03:44:24;;;;;;;;;;;;;;;26.09;44.58;94227.78;5033870;28;7253;-60
2023/05/25 03:46:50;;;;;;;;;;;;;;;26.10;44.15;94237.53;5048212;28;9385;-60
2023/05/25 03:49:26;;;;;;;;;;;;;;;26.07;44.09;94233.78;5035392;28;7611;-60
2023/05/25 03:51:52;;;;;;;;;;;;;;;26.09;44.44;94242.31;5049430;28;9122;-60
2023/05/25 03:54:21;;;;;;;;;;;;;;;26.09;44.74;94233.28;5065213;28;9560;-61
2023/05/25 03:56:47;;;;;;;;;;;;;;;26.10;44.30;94240.28;5052987;28;7073;-61
2023/05/25 03:59:13;;;;;;;;;;;;;;;26.06;44.79;94226.75;5030712;28;7192;-60
2023/05/25 04:01:38;;;;;;;;;;;;;;;26.07;44.58;94225.50;5035261;28;7252;-60
2023/05/25 04:04:14;;;;;;;;;;;;;;;26.07;44.50;94222.00;5052502;28;9188;-60
2023/05/25 04:06:51;;;;;;;;;;;;;;;26.08;44.03;94229.78;5033307;28;7340;-61
2023/05/25 04:09:17;;;;;;;;;;;;;;;26.07;44.61;94241.28;5051930;28;9002;-61
2023/05/25 04:11:44;;;;;;;;;;;;;;;26.08;44.21;94245.53;5054058;28;7940;-61
2023/05/25 04:14:11;;;;;;;;;;;;;;;26.06;44.08;94237.78;5051772;28;9164;-61
2023/05/25 04:16:40;;;;;;;;;;;;;;;26.05;44.02;94235.56;5028610;28;9156;-60
2023/05/25 04:19:08;;;;;;;;;;;;;;;26.06;44.07;94243.31;5047375;28;7438;-61
2023/05/25 04:21:34;;;;;;;;;;;;;;;26.06;44.79;94248.81;5034120;28;7198;-61
2023/05/25 04:24:05;;;;;;;;;;;;;;;26.07;44.72;94249.56;5034808;28;7952;-61
2023/05/25 04:26:40;;;;;;;;;;;;;;;26.06;44.85;94248.81;5036372;28;7008;-61
2023/05/25 04:29:13;;;;;;;;;;;;;;;26.02;44.64;94242.09;5034546;28;9040;-61
2023/05/25 04:32:16;;;;;;;;;;;;;;;26.06;44.53;94248.06;5026747;28;7028;-61
2023/05/25 04:34:51;;;;;;;;;;;;;;;26.04;44.71;94256.09;5049461;28;7045;-62
2023/05/25 04:37:26;;;;;;;;;;;;;;;26.05;44.86;94246.59;5032606;28;7116;-61
2023/05/25 04:40:20;;;;;;;;;;;;;;;26.04;44.98;94259.63;5050493;28;7331;-61
2023/05/25 04:42:55;;;;;;;;;;;;;;;26.04;44.41;94250.59;4972592;28;7199;-61
2023/05/25 04:46:10;;;;;;;;;;;;;;;26.03;44.43;94263.63;4987866;28;7203;-61
2023/05/25 04:48:51;;;;;;;;;;;;;;;26.02;45.54;94264.13;4915683;29;9126;-61
2023/05/25 04:51:21;;;;;;;;;;;;;;;26.03;45.19;94260.88;4924002;29;7430;-61
2023/05/25 04:53:50;;;;;;;;;;;;;;;26.03;44.97;94260.88;4923838;29;8746;-61
2023/05/25 04:56:26;;;;;;;;;;;;;;;26.04;44.42;94267.88;4924849;29;7040;-61
2023/05/25 04:58:55;;;;;;;;;;;;;;;26.04;45.05;94273.41;4941206;29;9007;-61
2023/05/25 05:01:22;;;;;;;;;;;;;;;26.02;45.30;94272.41;4943257;29;7136;-61
2023/05/25 05:04:16;;;;;;;;;;;;;;;26.02;45.30;94286.19;4926911;29;9394;-60
2023/05/25 05:06:53;;;;;;;;;;;;;;;26.02;44.80;94286.94;4910681;29;7328;-61
2023/05/25 05:09:38;;;;;;;;;;;;;;;26.03;44.89;94279.44;4925399;29;7177;-60
2023/05/25 05:12:19;;;;;;;;;;;;;;;26.02;44.62;94286.94;4918640;29;9096;-61
2023/05/25 05:15:01;;;;;;;;;;;;;;;25.98;44.85;94282.97;4931175;29;7051;-61
2023/05/25 05:17:48;;;;;;;;;;;;;;;25.99;45.34;94287.25;4923161;29;7026;-61
2023/05/25 05:20:19;;;;;;;;;;;;;;;25.99;45.64;94292.75;4949635;28;9320;-61
2023/05/25 05:22:53;;;;;;;;;;;;;;;26.02;45.25;94286.19;4985448;28;6987;-61
2023/05/25 05:25:20;;;;;;;;;;;;;;;26.03;44.87;94295.97;5015252;28;9078;-61
2023/05/25 05:28:11;;;;;;;;;;;;;;;26.03;45.58;94291.19;5070657;28;7040;-61
2023/05/25 05:30:46;;;;;;;;;;;;;;;26.01;45.28;94292.97;5035685;28;8601;-60
2023/05/25 05:33:16;;;;;;;;;;;;;;;26.01;45.48;94296.47;5038946;28;9038;-61
2023/05/25 05:36:13;;;;;;;;;;;;;;;26.02;44.90;94291.69;5050765;28;7271;-61
2023/05/25 05:38:41;;;;;;;;;;;;;;;26.02;44.72;94295.22;4943712;28;8995;-61
2023/05/25 05:41:20;;;;;;;;;;;;;;;26.02;44.74;94308.25;4952757;28;8672;-61
2023/05/25 05:43:57;;;;;;;;;;;;;;;25.99;45.22;94309.28;4932348;28;7138;-61
2023/05/25 05:46:24;;;;;;;;;;;;;;;25.99;45.31;94318.28;4969597;28;7116;-61
2023/05/25 05:49:40;;;;;;;;;;;;;;;26.00;44.64;94325.31;4956483;28;7954;-61
2023/05/25 05:52:09;;;;;;;;;;;;;;;25.99;44.38;94315.53;4988094;28;8938;-61
2023/05/25 05:54:36;;;;;;;;;;;;;;;25.98;44.82;94314.03;4969419;28;6916;-61
2023/05/25 05:57:05;;;;;;;;;;;;;;;25.98;45.05;94319.56;4959356;28;7047;-61
2023/05/25 05:59:58;;;;;;;;;;;;;;;26.00;44.43;94317.03;4950219;28;7036;-61
2023/05/25 06:02:33;;;;;;;;;;;;;;;25.98;45.01;94314.03;4955357;28;7251;-61
2023/05/25 06:05:00;;;;;;;;;;;;;;;26.01;45.30;94328.81;4954894;28;7234;-61
2023/05/25 06:07:29;;;;;;;;;;;;;;;25.97;44.43;94318.06;4973489;28;7266;-61
2023/05/25 06:10:16;;;;;;;;;;;;;;;26.02;44.41;94324.78;4953590;28;9055;-61
2023/05/25 06:13:17;;;;;;;;;;;;;;;26.02;45.27;94333.03;4952491;28;7051;-61
2023/05/25 06:15:47;;;;;;;;;;;;;;;26.01;44.90;94331.56;5023705;28;9003;-61
2023/05/25 06:18:45;;;;;;;;;;;;;;;25.98;45.15;94327.81;5057330;28;7373;-61
2023/05/25 06:21:56;;;;;;;;;;;;;;;25.99;45.32;94326.56;4986037;28;9039;-60
2023/05/25 06:24:32;;;;;;;;;;;;;;;25.98;44.59;94319.56;4955817;28;7149;-61
2023/05/25 06:27:18;;;;;;;;;;;;;;;25.96;45.16;94324.09;4954273;28;7022;-61
2023/05/25 06:30:03;;;;;;;;;;;;;;;25.95;44.96;94330.84;4954942;28;7081;-61
2023/05/25 06:32:47;;;;;;;;;;;;;;;25.93;44.56;94328.63;4936433;28;7514;-61
2023/05/25 06:35:24;;;;;;;;;;;;;;;25.96;45.18;94329.59;4944023;28;7034;-61
2023/05/25 06:38:02;;;;;;;;;;;;;;;25.95;45.12;94342.63;4952003;28;7259;-61
2023/05/25 06:40:38;;;;;;;;;;;;;;;25.99;44.45;94347.88;4939107;28;7015;-60
2023/05/25 06:43:15;;;;;;;;;;;;;;;25.98;44.53;94347.13;4954699;28;7237;-61
2023/05/25 06:45:52;;;;;;;;;;;;;;;25.98;45.21;94340.84;4938030;28;7219;-61
2023/05/25 06:48:18;;;;;;;;;;;;;;;25.98;45.10;94341.59;4953103;28;7795;-61
2023/05/25 06:50:59;;;;;;;;;;;;;;;25.99;44.93;94345.13;4939381;28;7072;-61
2023/05/25 06:53:45;;;;;;;;;;;;;;;25.96;44.67;94344.13;4956428;28;8705;-61
2023/05/25 06:56:36;;;;;;;;;;;;;;;25.97;45.48;94345.63;4973912;28;7132;-61
2023/05/25 06:59:13;;;;;;;;;;;;;;;25.97;45.39;94333.84;5033575;28;9056;-61
2023/05/25 07:01:45;;;;;;;;;;;;;;;25.94;44.75;94335.63;5045592;28;7044;-61
2023/05/25 07:04:13;;;;;;;;;;;;;;;25.94;44.92;94346.66;5052618;28;8913;-61
2023/05/25 07:07:00;;;;;;;;;;;;;;;25.94;44.83;94340.38;5050622;28;9540;-61
2023/05/25 07:09:37;;;;;;;;;;;;;;;25.93;45.47;94353.41;5050468;28;7054;-61
2023/05/25 07:12:17;;;;;;;;;;;;;;;25.96;45.18;94354.41;5048392;28;8780;-61
2023/05/25 07:14:52;;;;;;;;;;;;;;;25.93;45.58;94350.66;5046635;28;7275;-61
2023/05/25 07:17:20;;;;;;;;;;;;;;;25.97;44.82;94366.91;5041775;28;7120;-61
2023/05/25 07:20:06;;;;;;;;;;;;;;;25.97;44.83;94364.91;5045460;28;9195;-61
2023/05/25 07:22:34;;;;;;;;;;;;;;;25.98;45.41;94369.16;5051316;28;9022;-61
2023/05/25 07:25:00;;;;;;;;;;;;;;;25.97;44.88;94364.91;5059913;28;7274;-61
2023/05/25 07:27:29;;;;;;;;;;;;;;;25.99;45.43;94367.16;5043748;28;7275;-61
2023/05/25 07:29:59;;;;;;;;;;;;;;;25.95;45.45;94364.66;5046099;28;8196;-61
2023/05/25 07:32:25;;;;;;;;;;;;;;;25.98;45.56;94374.69;5079243;28;7216;-61
2023/05/25 07:34:55;;;;;;;;;;;;;;;25.96;45.18;94371.69;5041452;28;7079;-61
2023/05/25 07:37:21;;;;;;;;;;;;;;;25.96;45.83;94376.44;5052899;28;7906;-61
2023/05/25 07:39:47;;;;;;;;;;;;;;;25.97;44.95;94369.66;5062422;28;7009;-61
2023/05/25 07:42:19;;;;;;;;;;;;;;;25.97;45.47;94378.69;5049230;28;6982;-60
2023/05/25 07:45:06;;;;;;;;;;;;;;;25.98;45.15;94382.19;5039503;28;7071;-61
2023/05/25 07:47:40;;;;;;;;;;;;;;;25.95;45.85;94375.69;5053580;28;9050;-61
2023/05/25 07:50:34;;;;;;;;;;;;;;;26.00;45.73;94377.66;5065961;28;7073;-61
2023/05/25 07:53:03;;;;;;;;;;;;;;;26.01;45.45;94375.66;4967611;28;7521;-61
2023/05/25 07:55:39;;;;;;;;;;;;;;;25.97;45.18;94375.94;4955632;28;7333;-61
2023/05/25 07:58:31;;;;;;;;;;;;;;;25.99;45.65;94386.47;4954456;28;7306;-61
2023/05/25 08:01:07;;;;;;;;;;;;;;;26.00;45.50;94383.19;4970345;28;9157;-61
2023/05/25 08:03:34;;;;;;;;;;;;;;;26.01;45.28;94378.41;4970315;28;9111;-61
2023/05/25 08:06:14;;;;;;;;;;;;;;;25.99;45.87;94395.44;4967645;28;7192;-61
2023/05/25 08:08:45;;;;;;;;;;;;;;;25.98;45.89;94402.25;4965350;28;7061;-61
2023/05/25 08:11:26;;;;;;;;;;;;;;;26.00;45.68;94410.75;4962777;28;9061;-61
2023/05/25 08:14:04;;;;;;;;;;;;;;;25.98;45.73;94405.00;4969678;28;8983;-61
2023/05/25 08:17:01;;;;;;;;;;;;;;;25.99;45.42;94409.22;4971141;28;8378;-61
2023/05/25 08:19:41;;;;;;;;;;;;;;;26.02;45.89;94412.97;4932914;28;9315;-61
2023/05/25 08:22:14;;;;;;;;;;;;;;;26.02;45.87;94407.47;4957686;28;9509;-61
2023/05/25 08:25:17;;;;;;;;;;;;;;;26.03;45.14;94417.97;4943087;28;7252;-61
2023/05/25 08:27:46;;;;;;;;;;;;;;;26.02;45.95;94421.25;4935676;28;7188;-61
2023/05/25 08:30:21;;;;;;;;;;;;;;;26.01;45.83;94417.00;4993122;28;7080;-61
2023/05/25 08:32:50;;;;;;;;;;;;;;;25.99;45.78;94427.78;5011312;28;9141;-61
2023/05/25 08:35:24;;;;;;;;;;;;;;;25.96;46.06;94424.06;5024357;28;9050;-61
2023/05/25 08:37:50;;;;;;;;;;;;;;;25.99;46.11;94431.28;5017489;28;8851;-61
2023/05/25 08:40:21;;;;;;;;;;;;;;;25.99;45.78;94436.06;5005795;28;7580;-61
2023/05/25 08:43:06;;;;;;;;;;;;;;;25.99;45.34;94449.84;5027827;28;7029;-61
2023/05/25 08:46:19;;;;;;;;;;;;;;;26.00;45.37;94454.09;5005398;28;7235;-61
2023/05/25 08:49:03;;;;;;;;;;;;;;;26.02;45.90;94446.81;5007790;28;7908;-60
2023/05/25 08:51:48;;;;;;;;;;;;;;;26.03;45.95;94459.31;5017056;28;9279;-61
2023/05/25 08:54:18;;;;;;;;;;;;;;;26.03;45.53;94455.81;5022141;28;7138;-60
2023/05/25 08:56:50;;;;;;;;;;;;;;;26.03;45.54;94453.06;5043394;28;7060;-61
2023/05/25 08:59:21;;;;;;;;;;;;;;;26.03;45.90;94453.78;5059519;28;7018;-61
2023/05/25 09:01:57;;;;;;;;;;;;;;;26.02;45.75;94451.56;5052677;28;9021;-61
2023/05/25 09:04:25;;;;;;;;;;;;;;;26.02;45.96;94446.03;5042445;28;8204;-61
2023/05/25 09:06:51;;;;;;;;;;;;;;;26.02;45.75;94440.53;5068111;28;7151;-61
2023/05/25 09:09:25;;;;;;;;;;;;;;;26.04;45.49;94449.03;5042596;28;7174;-61
2023/05/25 09:11:53;;;;;;;;;;;;;;;26.05;46.04;94456.06;5048056;28;7055;-61
2023/05/25 09:14:49;;;;;;;;;;;;;;;26.02;45.29;94463.34;5043469;28;7345;-61
2023/05/25 09:17:17;;;;;;;;;;;;;;;26.01;46.11;94461.09;4987720;28;7888;-61
2023/05/25 09:19:45;;;;;;;;;;;;;;;25.98;45.75;94457.34;4972336;28;8761;-61
2023/05/25 09:22:22;;;;;;;;;;;;;;;26.00;45.54;94471.38;4984021;28;9203;-61
2023/05/25 09:25:06;;;;;;;;;;;;;;;26.05;45.93;94481.63;4990695;28;7214;-61
2023/05/25 09:27:44;;;;;;;;;;;;;;;26.07;45.27;94492.13;4989456;28;8993;-61
2023/05/25 09:30:13;;;;;;;;;;;;;;;26.05;45.55;94494.66;5007876;28;7069;-61
2023/05/25 09:33:11;;;;;;;;;;;;;;;26.08;46.08;94496.38;4974123;28;7031;-61
2023/05/25 09:35:52;;;;;;;;;;;;;;;26.08;45.46;94501.88;4991587;28;7449;-61
2023/05/25 09:38:35;;;;;;;;;;;;;;;26.07;45.54;94489.38;4989035;28;8631;-61
2023/05/25 09:41:04;;;;;;;;;;;;;;;26.06;45.51;94496.13;4972775;28;8235;-61
2023/05/25 09:43:39;;;;;;;;;;;;;;;26.08;45.66;94497.16;4986959;28;9083;-60
2023/05/25 09:46:08;;;;;;;;;;;;;;;26.04;46.08;94502.16;4991277;28;7088;-60
2023/05/25 09:48:44;;;;;;;;;;;;;;;26.06;45.48;94507.91;4992210;28;8791;-61
2023/05/25 09:51:31;;;;;;;;;;;;;;;26.06;45.63;94510.66;4975625;28;6991;-61
2023/05/25 09:54:15;;;;;;;;;;;;;;;26.05;45.58;94511.94;5010306;28;9097;-61
2023/05/25 09:56:44;;;;;;;;;;;;;;;26.06;45.89;94512.66;5035955;28;7263;-61
2023/05/25 09:59:14;;;;;;;;;;;;;;;26.07;45.73;94516.94;5066576;28;7061;-61
2023/05/25 10:01:43;;;;;;;;;;;;;;;26.05;45.43;94517.44;5075062;28;7046;-61
2023/05/25 10:04:15;;;;;;;;;;;;;;;26.07;46.31;94514.94;5057200;28;7564;-61
2023/05/25 10:07:10;;;;;;;;;;;;;;;26.08;45.96;94515.66;5079247;28;7350;-61
2023/05/25 10:09:57;;;;;;;;;;;;;;;26.09;45.38;94528.22;4958106;28;7106;-61
2023/05/25 10:12:25;;;;;;;;;;;;;;;26.07;46.39;94536.22;4971255;28;7061;-61
2023/05/25 10:15:12;;;;;;;;;;;;;;;26.08;46.16;94537.72;4953830;28;7113;-61
2023/05/25 10:18:00;;;;;;;;;;;;;;;26.05;45.99;94539.50;4972465;28;9435;-61
2023/05/25 10:20:48;;;;;;;;;;;;;;;26.06;46.29;94545.75;4975755;28;9087;-61
2023/05/25 10:23:56;;;;;;;;;;;;;;;26.07;45.56;94547.25;4948340;28;8909;-61
2023/05/25 10:26:46;;;;;;;;;;;;;;;26.08;45.60;94555.03;4909223;29;9016;-61
2023/05/25 10:29:23;;;;;;;;;;;;;;;26.07;45.65;94550.00;4916226;29;9036;-60
2023/05/25 10:32:16;;;;;;;;;;;;;;;26.09;46.23;94551.03;4895274;29;7166;-60
2023/05/25 10:35:11;;;;;;;;;;;;;;;26.09;46.15;94556.53;4886656;29;7400;-61
2023/05/25 10:37:52;;;;;;;;;;;;;;;26.09;46.34;94562.06;4899281;29;7003;-61
2023/05/25 10:40:59;;;;;;;;;;;;;;;26.09;46.41;94556.53;4889075;29;6983;-61
2023/05/25 10:43:36;;;;;;;;;;;;;;;26.09;45.74;94562.06;4885304;29;7277;-61
2023/05/25 10:46:51;;;;;;;;;;;;;;;26.09;46.49;94562.06;4953788;28;7024;-60
2023/05/25 10:49:56;;;;;;;;;;;;;;;26.08;46.73;94557.00;4949598;28;9030;-61
2023/05/25 10:52:29;;;;;;;;;;;;;;;26.08;46.42;94566.06;4938989;28;7543;-61
2023/05/25 10:55:00;;;;;;;;;;;;;;;26.07;46.56;94570.06;4949375;28;8595;-61
2023/05/25 10:57:30;;;;;;;;;;;;;;;26.05;46.71;94566.31;4951986;28;7092;-61
2023/05/25 11:04:16;;;;;;;;;;;;;;;26.10;46.85;94568.31;4935985;29;9082;-61
2023/05/25 11:07:32;;;;;;;;;;;;;;;26.11;46.61;94573.31;4933948;28;8551;-61
2023/05/25 11:10:00;;;;;;;;;;;;;;;26.15;46.86;94565.53;4850079;29;9132;-61
2023/05/25 11:12:26;;;;;;;;;;;;;;;26.16;46.34;94567.00;4860730;29;9053;-61
2023/05/25 11:15:16;;;;;;;;;;;;;;;26.15;46.06;94562.78;4857459;29;8410;-61
2023/05/25 11:18:13;;;;;;;;;;;;;;;26.17;46.03;94568.53;4852398;29;9746;-61
2023/05/25 11:21:14;;;;;;;;;;;;;;;26.16;46.02;94571.78;4853085;29;9050;-62
2023/05/25 11:24:19;;;;;;;;;;;;;;;26.22;45.82;94574.50;4873848;29;9064;-61
2023/05/25 11:26:56;;;;;;;;;;;;;;;26.22;45.79;94574.50;4943822;28;7203;-62
2023/05/25 11:29:25;;;;;;;;;;;;;;;26.22;46.06;94575.25;4963412;28;8724;-61
2023/05/25 11:32:04;;;;;;;;;;;;;;;26.23;46.61;94576.00;4947403;28;7290;-61
2023/05/25 11:34:33;;;;;;;;;;;;;;;26.20;46.03;94577.03;4959801;28;7288;-62
2023/05/25 11:37:10;;;;;;;;;;;;;;;26.23;46.46;94570.50;4954579;28;6995;-61
2023/05/25 11:39:54;;;;;;;;;;;;;;;26.22;46.01;94564.22;4969240;28;9379;-61
2023/05/25 11:42:37;;;;;;;;;;;;;;;26.22;45.63;94561.47;4941637;28;7205;-62
2023/05/25 11:45:13;;;;;;;;;;;;;;;26.26;45.69;94574.97;4975242;28;7274;-62
2023/05/25 11:47:48;;;;;;;;;;;;;;;26.27;46.49;94565.47;5077343;28;9215;-61
2023/05/25 11:50:20;;;;;;;;;;;;;;;26.25;45.68;94556.94;5053088;28;7049;-61
2023/05/25 11:52:48;;;;;;;;;;;;;;;26.23;46.20;94554.69;5049647;28;9129;-61
2023/05/25 11:55:47;;;;;;;;;;;;;;;26.27;46.00;94557.94;5036534;28;9691;-61
2023/05/25 11:58:38;;;;;;;;;;;;;;;26.29;46.22;94557.44;4945187;28;7275;-61
2023/05/25 12:01:53;;;;;;;;;;;;;;;26.29;45.56;94560.94;4937968;28;9432;-61
2023/05/25 12:04:31;;;;;;;;;;;;;;;26.28;45.92;94564.19;4938372;28;8980;-61
2023/05/25 12:07:22;;;;;;;;;;;;;;;26.29;46.18;94568.44;4954014;28;7069;-61
2023/05/25 12:10:24;;;;;;;;;;;;;;;26.25;46.07;94563.22;4954495;28;7240;-61
2023/05/25 12:12:56;;;;;;;;;;;;;;;26.27;45.82;94562.69;4931899;29;7120;-61
2023/05/25 12:15:38;;;;;;;;;;;;;;;26.29;45.83;94566.44;4945188;28;9474;-61
2023/05/25 12:18:36;;;;;;;;;;;;;;;26.31;45.59;94576.97;4954396;28;9045;-61
2023/05/25 12:21:41;;;;;;;;;;;;;;;26.31;46.10;94579.72;4896723;29;9819;-61
2023/05/25 12:24:34;;;;;;;;;;;;;;;26.33;46.46;94569.69;4897032;29;7284;-61
2023/05/25 12:27:30;;;;;;;;;;;;;;;26.34;46.30;94571.16;4896408;29;6925;-61
2023/05/25 12:30:29;;;;;;;;;;;;;;;26.33;45.77;94569.69;4844323;29;9336;-61
2023/05/25 12:33:01;;;;;;;;;;;;;;;26.31;46.19;94565.94;4849340;29;7268;-61
2023/05/25 12:35:52;;;;;;;;;;;;;;;26.34;46.27;94571.16;4862401;29;7292;-61
2023/05/25 12:38:37;;;;;;;;;;;;;;;26.36;45.86;94565.16;4895663;29;7238;-61
2023/05/25 12:41:13;;;;;;;;;;;;;;;26.35;46.32;94560.88;4891891;29;9050;-62
2023/05/25 12:43:59;;;;;;;;;;;;;;;26.39;45.88;94561.34;4881149;29;7455;-62
2023/05/25 12:46:50;;;;;;;;;;;;;;;26.38;45.84;94565.38;4878736;29;7220;-61
2023/05/25 12:49:31;;;;;;;;;;;;;;;26.40;45.74;94568.38;4881196;29;7540;-61
2023/05/25 12:52:09;;;;;;;;;;;;;;;26.38;46.01;94560.59;4910851;29;7228;-61
2023/05/25 12:55:12;;;;;;;;;;;;;;;26.40;45.58;94565.63;4915527;29;8722;-61
2023/05/25 12:57:57;;;;;;;;;;;;;;;26.37;46.06;94558.38;4983925;28;7277;-61
2023/05/25 13:00:53;;;;;;;;;;;;;;;26.40;45.95;94563.63;4975619;28;8805;-61
2023/05/25 13:03:47;;;;;;;;;;;;;;;26.40;45.98;94568.38;4980267;28;8678;-61
2023/05/25 13:06:43;;;;;;;;;;;;;;;26.39;46.71;94564.88;4996644;28;7336;-61
2023/05/25 13:09:24;;;;;;;;;;;;;;;26.39;46.25;94564.88;5032982;28;9268;-61
2023/05/25 13:12:03;;;;;;;;;;;;;;;26.37;46.40;94564.63;5031825;28;9110;-62
2023/05/25 13:14:29;;;;;;;;;;;;;;;26.41;45.89;94575.38;5031749;28;7587;-61
2023/05/25 13:16:56;;;;;;;;;;;;;;;26.40;46.40;94569.13;5028235;28;9022;-61
2023/05/25 13:19:26;;;;;;;;;;;;;;;26.45;46.04;94573.09;5016082;28;7314;-62
2023/05/25 13:21:57;;;;;;;;;;;;;;;26.48;45.59;94577.59;5032474;28;9381;-61
2023/05/25 13:24:35;;;;;;;;;;;;;;;26.47;46.01;94574.09;5001475;28;7244;-61
2023/05/25 13:27:04;;;;;;;;;;;;;;;26.45;45.96;94565.56;5031522;28;7288;-61
2023/05/25 13:29:30;;;;;;;;;;;;;;;26.46;46.36;94569.84;5034650;28;8081;-61
2023/05/25 13:31:57;;;;;;;;;;;;;;;26.50;45.76;94583.34;5030120;28;8709;-61
2023/05/25 13:34:23;;;;;;;;;;;;;;;26.51;45.68;94576.59;5039519;28;7136;-61
2023/05/25 13:36:59;;;;;;;;;;;;;;;26.51;45.88;94576.59;5043113;28;7157;-61
2023/05/25 13:39:27;;;;;;;;;;;;;;;26.51;45.99;94571.06;5040943;28;8537;-61
2023/05/25 13:41:53;;;;;;;;;;;;;;;26.54;45.44;94578.31;5042495;28;8759;-61
2023/05/25 13:44:21;;;;;;;;;;;;;;;26.50;46.15;94567.56;5027930;28;8258;-61
2023/05/25 13:46:47;;;;;;;;;;;;;;;26.53;45.77;94572.06;5046397;28;9433;-61
2023/05/25 13:49:18;;;;;;;;;;;;;;;26.53;45.75;94577.56;5054794;28;7253;-61
2023/05/25 13:51:47;;;;;;;;;;;;;;;26.54;46.06;94570.78;5058791;28;6866;-61
2023/05/25 13:54:23;;;;;;;;;;;;;;;26.53;45.05;94576.81;5067223;28;9476;-61